Time;durP1;ratioP1;P1;durP2;ratioP2;P2;SDS_P1;SDS_P2;PMS_P1;PMS_P2;Temp;Humidity;BMP_temperature;BMP_pressure;BME280_temperature;BME280_humidity;BME280_pressure;Samples;Min_cycle;Max_cycle;Signal;HPM_P1;HPM_P2
2021/12/18 00:01:33;;;;;;;1.10;0.60;;;-0.20;99.90;;;;;;5101066;28;20746;-72
2021/12/18 00:03:59;;;;;;;0.40;0.20;;;-0.30;99.90;;;;;;5101093;28;20392;-73
2021/12/18 00:06:27;;;;;;;0.90;0.90;;;-0.20;99.90;;;;;;5101202;28;20388;-73
2021/12/18 00:08:54;;;;;;;0.40;0.30;;;-0.20;99.90;;;;;;5101111;28;20395;-73
2021/12/18 00:11:20;;;;;;;0.40;0.20;;;-0.20;99.90;;;;;;5099791;28;20460;-72
2021/12/18 00:13:46;;;;;;;0.40;0.30;;;-0.20;99.90;;;;;;5100489;28;20431;-74
2021/12/18 00:16:11;;;;;;;0.40;0.20;;;-0.10;99.90;;;;;;5100397;28;20384;-73
2021/12/18 00:18:37;;;;;;;0.40;0.20;;;-0.10;99.90;;;;;;5101275;28;20414;-73
2021/12/18 00:21:04;;;;;;;0.40;0.20;;;-0.10;99.90;;;;;;5082112;28;20400;-74
2021/12/18 00:23:30;;;;;;;0.40;0.20;;;-0.10;99.90;;;;;;5099981;28;20785;-74
2021/12/18 00:25:56;;;;;;;0.55;0.55;;;0.00;99.90;;;;;;5101033;28;20405;-74
2021/12/18 00:28:23;;;;;;;0.40;0.30;;;-0.10;99.90;;;;;;5100220;28;20477;-73
2021/12/18 00:30:48;;;;;;;0.50;0.50;;;-0.10;99.90;;;;;;5100185;28;20395;-74
2021/12/18 00:33:14;;;;;;;0.40;0.30;;;0.00;99.90;;;;;;5098689;28;21668;-73
2021/12/18 00:35:40;;;;;;;0.40;0.30;;;0.00;99.90;;;;;;5100695;28;20764;-73
2021/12/18 00:38:07;;;;;;;0.40;0.30;;;-0.10;99.90;;;;;;5082087;28;20407;-74
2021/12/18 00:40:46;;;;;;;0.40;0.20;;;-0.20;99.90;;;;;;5099798;28;20523;-73
2021/12/18 00:43:24;;;;;;;0.40;0.30;;;-0.20;99.90;;;;;;5081365;28;20482;-74
2021/12/18 00:45:51;;;;;;;0.40;0.20;;;-0.20;99.90;;;;;;5100932;28;20912;-73
2021/12/18 00:48:17;;;;;;;0.40;0.20;;;-0.20;99.90;;;;;;5100432;28;20385;-74
2021/12/18 00:50:43;;;;;;;0.40;0.20;;;-0.20;99.90;;;;;;5099830;28;20694;-74
2021/12/18 00:53:09;;;;;;;0.40;0.20;;;-0.10;99.90;;;;;;5099611;28;20476;-74
2021/12/18 00:55:37;;;;;;;0.40;0.30;;;0.00;99.90;;;;;;5080920;28;20432;-74
2021/12/18 00:58:03;;;;;;;0.40;0.20;;;0.00;99.90;;;;;;5099471;28;20400;-73
2021/12/18 01:00:29;;;;;;;0.40;0.20;;;0.10;99.90;;;;;;5100328;28;20599;-75
2021/12/18 01:02:58;;;;;;;0.50;0.40;;;0.10;99.90;;;;;;5098780;28;20744;-74
2021/12/18 01:05:25;;;;;;;0.40;0.20;;;0.10;99.90;;;;;;5099997;28;20449;-74
2021/12/18 01:07:54;;;;;;;0.40;0.20;;;0.20;99.90;;;;;;5099130;28;20380;-74
2021/12/18 01:12:51;;;;;;;0.40;0.20;;;0.40;99.90;;;;;;5098464;28;20483;-73
2021/12/18 01:23:12;;;;;;;0.40;0.20;;;0.40;99.90;;;;;;5099101;28;20407;-74
2021/12/18 01:25:38;;;;;;;0.40;0.20;;;0.40;99.90;;;;;;5100133;28;20519;-74
2021/12/18 01:28:04;;;;;;;0.70;0.70;;;0.50;99.90;;;;;;5098209;28;21275;-74
2021/12/18 01:30:30;;;;;;;0.40;0.30;;;0.40;99.90;;;;;;5099765;28;20475;-74
2021/12/18 01:32:56;;;;;;;0.40;0.30;;;0.40;99.90;;;;;;5098003;28;20817;-74
2021/12/18 01:35:22;;;;;;;0.40;0.20;;;0.40;99.90;;;;;;5098950;28;20451;-74
2021/12/18 01:37:50;;;;;;;0.40;0.30;;;0.30;99.90;;;;;;5098932;28;20392;-74
2021/12/18 01:40:16;;;;;;;0.40;0.20;;;0.30;99.90;;;;;;5098633;28;20395;-74
2021/12/18 01:45:33;;;;;;;0.40;0.20;;;0.30;99.90;;;;;;5098773;28;20399;-74
2021/12/18 01:53:29;;;;;;;0.40;0.20;;;0.00;99.90;;;;;;5096751;28;20376;-74
2021/12/18 01:55:55;;;;;;;0.40;0.20;;;0.00;99.90;;;;;;5099405;28;20385;-74
2021/12/18 01:58:24;;;;;;;0.40;0.40;;;-0.10;99.90;;;;;;5098298;28;20466;-74
2021/12/18 02:00:53;;;;;;;1.00;0.90;;;0.00;99.90;;;;;;5098723;28;20395;-74
2021/12/18 02:03:19;;;;;;;0.70;0.60;;;0.00;99.90;;;;;;5078483;28;20434;-74
2021/12/18 02:05:47;;;;;;;0.40;0.22;;;0.00;99.90;;;;;;5098985;28;20388;-74
2021/12/18 02:08:17;;;;;;;2.80;1.60;;;0.10;99.90;;;;;;5098846;28;20542;-74
2021/12/18 02:10:46;;;;;;;0.40;0.30;;;0.20;99.90;;;;;;5097277;28;20392;-74
2021/12/18 02:21:26;;;;;;;0.40;0.40;;;0.30;99.90;;;;;;5097837;28;20371;-74
2021/12/18 02:23:52;;;;;;;0.40;0.30;;;0.30;99.90;;;;;;5097960;28;20403;-74
2021/12/18 02:26:18;;;;;;;0.40;0.20;;;0.40;99.90;;;;;;5098175;28;20405;-73
2021/12/18 02:28:45;;;;;;;0.40;0.30;;;0.40;99.90;;;;;;5098052;28;20400;-74
2021/12/18 02:31:12;;;;;;;0.60;0.60;;;0.30;99.90;;;;;;5098591;28;20395;-74
2021/12/18 02:33:37;;;;;;;0.40;0.20;;;0.20;99.90;;;;;;5097178;28;20471;-74
2021/12/18 02:36:06;;;;;;;0.68;0.65;;;0.20;99.90;;;;;;5097411;28;20791;-74
2021/12/18 02:41:45;;;;;;;0.45;0.35;;;0.10;99.90;;;;;;5097815;28;20939;-74
2021/12/18 02:44:05;;;;;;;0.70;0.50;;;0.30;99.90;;;;;;5093712;28;20424;-74
2021/12/18 02:46:31;;;;;;;0.80;0.60;;;0.40;99.90;;;;;;5098258;28;20477;-73
2021/12/18 02:48:58;;;;;;;0.40;0.20;;;0.30;99.90;;;;;;5098439;28;20437;-74
2021/12/18 02:51:24;;;;;;;0.40;0.20;;;0.40;99.90;;;;;;5097680;28;20377;-74
2021/12/18 02:53:53;;;;;;;0.40;0.30;;;0.40;99.90;;;;;;5097811;28;20436;-73
2021/12/18 02:56:23;;;;;;;0.40;0.40;;;0.50;99.90;;;;;;5097138;28;20839;-72
2021/12/18 02:58:58;;;;;;;0.75;0.75;;;0.40;99.90;;;;;;5097904;28;20376;-74
2021/12/18 03:01:26;;;;;;;0.40;0.30;;;0.30;99.90;;;;;;5095788;28;20403;-72
2021/12/18 03:03:53;;;;;;;0.40;0.30;;;0.20;99.90;;;;;;5097631;28;20396;-72
2021/12/18 03:09:48;;;;;;;0.40;0.40;;;0.20;99.90;;;;;;5098075;28;20587;-72
2021/12/18 03:25:21;;;;;;;0.50;0.50;;;0.40;99.90;;;;;;5097938;28;20890;-74
2021/12/18 03:27:47;;;;;;;0.40;0.20;;;0.40;99.90;;;;;;5096632;28;20404;-73
2021/12/18 03:30:12;;;;;;;0.40;0.40;;;0.40;99.90;;;;;;5096794;28;21151;-73
2021/12/18 03:32:38;;;;;;;0.40;0.30;;;0.50;99.90;;;;;;5095213;28;20383;-73
2021/12/18 03:35:05;;;;;;;0.40;0.20;;;0.50;99.90;;;;;;5096274;28;20459;-73
2021/12/18 03:37:34;;;;;;;0.40;0.30;;;0.30;99.90;;;;;;5096618;28;20414;-73
2021/12/18 03:40:00;;;;;;;1.10;1.00;;;0.40;99.90;;;;;;5095845;28;20383;-73
2021/12/18 03:42:25;;;;;;;5.80;1.77;;;0.50;99.90;;;;;;5077529;28;20400;-73
2021/12/18 03:44:51;;;;;;;0.40;0.20;;;0.50;99.90;;;;;;5096197;28;20384;-73
2021/12/18 03:47:17;;;;;;;0.40;0.20;;;0.40;99.90;;;;;;5096789;28;20377;-73
2021/12/18 03:49:43;;;;;;;0.40;0.20;;;0.40;99.90;;;;;;5096746;28;20466;-73
2021/12/18 03:52:09;;;;;;;0.40;0.40;;;0.40;99.90;;;;;;5094910;28;20395;-73
2021/12/18 03:54:34;;;;;;;0.40;0.20;;;0.30;99.90;;;;;;5096025;28;20420;-73
2021/12/18 03:57:01;;;;;;;1.30;1.00;;;0.20;99.90;;;;;;5095465;28;20388;-73
2021/12/18 03:59:26;;;;;;;0.40;0.20;;;0.30;99.90;;;;;;5096366;28;20403;-73
2021/12/18 04:01:52;;;;;;;1.20;0.90;;;0.10;99.90;;;;;;5095663;28;20372;-73
2021/12/18 04:04:18;;;;;;;0.40;0.20;;;0.10;99.90;;;;;;5095898;28;20756;-73
2021/12/18 04:06:44;;;;;;;0.40;0.20;;;0.10;99.90;;;;;;5096711;28;20455;-73
2021/12/18 04:09:11;;;;;;;0.40;0.30;;;0.00;99.90;;;;;;5096644;28;20460;-73
2021/12/18 04:11:38;;;;;;;0.50;0.50;;;0.10;99.90;;;;;;5096173;28;20414;-72
2021/12/18 04:14:04;;;;;;;0.40;0.32;;;0.10;99.90;;;;;;5099866;28;20910;-73
2021/12/18 04:16:31;;;;;;;0.40;0.20;;;0.00;99.90;;;;;;5080106;28;20391;-73
2021/12/18 04:18:56;;;;;;;0.40;0.22;;;0.00;99.90;;;;;;5099920;28;20449;-73
2021/12/18 04:21:22;;;;;;;0.40;0.20;;;0.10;99.90;;;;;;5080480;28;20483;-73
2021/12/18 04:23:48;;;;;;;0.40;0.30;;;0.10;99.90;;;;;;5099099;28;20404;-73
2021/12/18 04:26:14;;;;;;;0.40;0.20;;;0.10;99.90;;;;;;5100447;28;20475;-73
2021/12/18 04:28:39;;;;;;;0.40;0.30;;;0.10;99.90;;;;;;5030876;28;1916025;-73
2021/12/18 04:31:05;;;;;;;0.40;0.20;;;0.20;99.90;;;;;;5100935;28;20432;-72
2021/12/18 04:33:31;;;;;;;0.40;0.30;;;0.20;99.90;;;;;;5100168;28;20420;-74
2021/12/18 04:35:56;;;;;;;0.70;0.70;;;0.00;99.90;;;;;;5099560;28;20424;-74
2021/12/18 04:38:22;;;;;;;0.40;0.20;;;-0.10;99.90;;;;;;5099874;28;20380;-75
2021/12/18 04:40:49;;;;;;;0.40;0.30;;;-0.10;99.90;;;;;;5100099;28;20787;-74
2021/12/18 04:43:15;;;;;;;1.10;0.90;;;-0.10;99.90;;;;;;5099695;28;20444;-75
2021/12/18 04:45:41;;;;;;;0.40;0.20;;;-0.30;99.90;;;;;;5101291;28;20876;-73
2021/12/18 04:48:07;;;;;;;0.40;0.28;;;-0.30;99.90;;;;;;5081652;28;20457;-74
2021/12/18 04:50:32;;;;;;;0.40;0.40;;;-0.10;99.90;;;;;;5081701;28;20900;-73
2021/12/18 04:52:58;;;;;;;0.40;0.30;;;-0.10;99.90;;;;;;5099479;28;20888;-73
2021/12/18 04:55:24;;;;;;;1.20;0.60;;;-0.30;99.90;;;;;;5100797;28;20416;-73
2021/12/18 04:57:51;;;;;;;0.40;0.20;;;-0.30;99.90;;;;;;5100338;28;20412;-74
2021/12/18 05:00:20;;;;;;;0.40;0.20;;;-0.20;99.90;;;;;;5064680;28;20424;-73
2021/12/18 05:02:48;;;;;;;0.40;0.20;;;-0.20;99.90;;;;;;5099631;28;20467;-73
2021/12/18 05:05:14;;;;;;;0.40;0.40;;;-0.20;99.90;;;;;;5099550;28;20399;-73
2021/12/18 05:07:43;;;;;;;0.40;0.20;;;-0.10;99.90;;;;;;5100233;28;20412;-73
2021/12/18 05:10:12;;;;;;;0.65;0.57;;;-0.10;99.90;;;;;;5100099;28;20467;-74
2021/12/18 05:12:37;;;;;;;0.40;0.20;;;-0.10;99.90;;;;;;5079949;28;20397;-73
2021/12/18 05:15:05;;;;;;;0.40;0.20;;;-0.10;99.90;;;;;;5099903;28;20489;-73
2021/12/18 05:17:31;;;;;;;0.40;0.28;;;-0.20;99.90;;;;;;5099282;28;20388;-73
2021/12/18 05:19:57;;;;;;;0.40;0.30;;;-0.10;99.90;;;;;;5100107;28;20392;-74
2021/12/18 05:22:22;;;;;;;0.40;0.30;;;0.00;99.90;;;;;;5099310;28;20383;-73
2021/12/18 05:24:48;;;;;;;0.40;0.20;;;0.00;99.90;;;;;;5098270;28;20655;-74
2021/12/18 05:27:14;;;;;;;0.40;0.20;;;0.00;99.90;;;;;;5100233;28;20393;-74
2021/12/18 05:29:39;;;;;;;0.40;0.20;;;0.00;99.90;;;;;;5099580;28;20404;-74
2021/12/18 05:32:06;;;;;;;0.40;0.20;;;0.10;99.90;;;;;;5098521;28;20381;-75
2021/12/18 05:34:37;;;;;;;0.40;0.20;;;0.00;99.90;;;;;;5099658;28;20439;-74
2021/12/18 05:39:39;;;;;;;1.30;0.50;;;-0.20;99.90;;;;;;5099166;28;20476;-71
2021/12/18 05:42:06;;;;;;;0.40;0.20;;;-0.30;99.90;;;;;;5097712;28;20376;-73
2021/12/18 05:44:31;;;;;;;0.40;0.20;;;-0.20;99.90;;;;;;5081493;28;20401;-73
2021/12/18 05:46:57;;;;;;;0.40;0.20;;;-0.10;99.90;;;;;;5099762;28;20912;-72
2021/12/18 05:49:23;;;;;;;0.43;0.35;;;-0.10;99.90;;;;;;5099075;28;20415;-72
2021/12/18 05:51:49;;;;;;;0.45;0.43;;;-0.10;99.90;;;;;;5097933;28;20411;-73
2021/12/18 05:54:16;;;;;;;0.40;0.30;;;0.00;99.90;;;;;;5099253;28;20517;-73
2021/12/18 05:56:43;;;;;;;0.80;0.70;;;-0.10;99.90;;;;;;5098699;28;20396;-73
2021/12/18 05:59:08;;;;;;;1.17;1.13;;;-0.10;99.90;;;;;;5098518;28;20393;-73
2021/12/18 06:01:35;;;;;;;0.40;0.30;;;0.00;99.90;;;;;;5098023;28;20385;-75
2021/12/18 06:04:00;;;;;;;0.40;0.20;;;0.00;99.90;;;;;;5098613;28;20411;-74
2021/12/18 06:06:26;;;;;;;0.80;0.80;;;-0.10;99.90;;;;;;5080827;28;20491;-72
2021/12/18 06:08:52;;;;;;;0.90;0.80;;;0.00;99.90;;;;;;5098859;28;20746;-75
2021/12/18 06:11:20;;;;;;;0.40;0.33;;;0.00;99.90;;;;;;5097376;28;20437;-73
2021/12/18 06:13:49;;;;;;;0.40;0.25;;;0.00;99.90;;;;;;5098830;28;20434;-72
2021/12/18 06:16:15;;;;;;;0.40;0.20;;;0.30;99.90;;;;;;5098062;28;20416;-72
2021/12/18 06:18:46;;;;;;;7.30;0.70;;;0.20;99.90;;;;;;5098869;28;20377;-73
2021/12/18 06:21:14;;;;;;;0.40;0.20;;;0.20;99.90;;;;;;5098331;28;20871;-72
2021/12/18 06:23:43;;;;;;;0.90;0.60;;;0.20;99.90;;;;;;5098241;28;20504;-72
2021/12/18 06:26:10;;;;;;;0.40;0.20;;;0.20;99.90;;;;;;5098865;28;20529;-72
2021/12/18 06:28:36;;;;;;;0.40;0.30;;;0.30;99.90;;;;;;5080732;28;20408;-73
2021/12/18 06:31:02;;;;;;;0.40;0.20;;;0.30;99.90;;;;;;5098557;28;20388;-72
2021/12/18 06:33:29;;;;;;;0.40;0.20;;;0.10;99.90;;;;;;5096810;28;20392;-72
2021/12/18 06:35:56;;;;;;;0.40;0.30;;;0.10;99.90;;;;;;5097999;28;20421;-73
2021/12/18 06:38:22;;;;;;;0.40;0.30;;;0.20;99.90;;;;;;5097569;28;20491;-73
2021/12/18 06:40:48;;;;;;;0.50;0.40;;;0.20;99.90;;;;;;5097771;28;20384;-73
2021/12/18 06:43:13;;;;;;;0.40;0.30;;;0.30;99.90;;;;;;5097949;28;20392;-73
2021/12/18 06:45:40;;;;;;;0.43;0.40;;;0.20;99.90;;;;;;5098256;28;20392;-73
2021/12/18 06:48:05;;;;;;;0.40;0.30;;;0.10;99.90;;;;;;5097989;28;20377;-72
2021/12/18 06:50:32;;;;;;;0.40;0.20;;;0.20;99.90;;;;;;5097491;28;20386;-72
2021/12/18 06:52:58;;;;;;;0.40;0.20;;;0.10;99.90;;;;;;5097840;28;20441;-72
2021/12/18 06:55:24;;;;;;;0.40;0.20;;;0.00;99.90;;;;;;5097924;28;20416;-74
2021/12/18 06:57:50;;;;;;;0.40;0.20;;;0.10;99.90;;;;;;5096836;28;20392;-73
2021/12/18 07:00:16;;;;;;;0.50;0.50;;;0.20;99.90;;;;;;5098041;28;20732;-73
2021/12/18 07:02:43;;;;;;;0.40;0.40;;;0.30;99.90;;;;;;5077754;28;20399;-73
2021/12/18 07:05:09;;;;;;;0.40;0.20;;;0.30;99.90;;;;;;5098523;28;20391;-74
2021/12/18 07:07:35;;;;;;;0.40;0.22;;;0.30;99.90;;;;;;5098097;28;20392;-72
2021/12/18 07:10:06;;;;;;;0.40;0.20;;;0.30;99.90;;;;;;5097916;28;20394;-73
2021/12/18 07:12:31;;;;;;;0.40;0.20;;;0.20;99.90;;;;;;5097397;28;20486;-74
2021/12/18 07:14:57;;;;;;;0.40;0.30;;;0.40;99.90;;;;;;5097045;28;20878;-73
2021/12/18 07:17:23;;;;;;;1.50;0.70;;;0.30;99.90;;;;;;5097760;28;20419;-73
2021/12/18 07:19:49;;;;;;;0.40;0.30;;;0.40;99.90;;;;;;5097685;28;20865;-74
2021/12/18 07:22:14;;;;;;;0.70;0.70;;;0.40;99.90;;;;;;5078347;28;20385;-73
2021/12/18 07:24:40;;;;;;;0.50;0.50;;;0.40;99.90;;;;;;5098551;28;20475;-73
2021/12/18 07:27:06;;;;;;;0.40;0.20;;;0.40;99.90;;;;;;5097137;28;21211;-74
2021/12/18 07:29:32;;;;;;;0.40;0.20;;;0.30;99.90;;;;;;5098081;28;20457;-74
2021/12/18 07:31:57;;;;;;;0.40;0.20;;;0.30;99.90;;;;;;5097032;28;20372;-74
2021/12/18 07:34:23;;;;;;;0.40;0.30;;;0.30;99.90;;;;;;5097742;28;20412;-75
2021/12/18 07:36:49;;;;;;;0.40;0.30;;;0.50;99.90;;;;;;5097408;28;20506;-74
2021/12/18 07:39:15;;;;;;;0.40;0.20;;;0.60;99.90;;;;;;5097748;28;20392;-74
2021/12/18 07:41:41;;;;;;;0.80;0.80;;;0.40;99.90;;;;;;5078594;28;20392;-74
2021/12/18 07:44:07;;;;;;;0.40;0.20;;;0.30;99.90;;;;;;5097468;28;20387;-75
2021/12/18 07:46:35;;;;;;;0.40;0.20;;;0.30;99.90;;;;;;5079092;28;20728;-75
2021/12/18 07:49:00;;;;;;;0.40;0.20;;;0.40;99.90;;;;;;5101510;28;20396;-75
2021/12/18 07:51:26;;;;;;;0.40;0.30;;;0.30;99.90;;;;;;5100326;28;20408;-75
2021/12/18 07:53:52;;;;;;;0.40;0.20;;;0.40;99.90;;;;;;5101727;28;20735;-74
2021/12/18 07:56:19;;;;;;;0.40;0.20;;;0.40;99.90;;;;;;5100417;28;20404;-74
2021/12/18 07:58:45;;;;;;;0.40;0.40;;;0.40;99.90;;;;;;5101285;28;20380;-74
2021/12/18 08:01:11;;;;;;;0.40;0.20;;;0.60;99.90;;;;;;5101144;28;20739;-74
2021/12/18 08:03:37;;;;;;;0.40;0.30;;;0.40;99.90;;;;;;5100861;28;20372;-73
2021/12/18 08:06:03;;;;;;;0.40;0.20;;;0.50;99.90;;;;;;5101579;28;20392;-74
2021/12/18 08:08:29;;;;;;;0.60;0.60;;;0.60;99.90;;;;;;5100838;28;21184;-73
2021/12/18 08:10:55;;;;;;;0.40;0.30;;;0.70;99.90;;;;;;5101497;28;20437;-74
2021/12/18 08:13:21;;;;;;;0.40;0.30;;;0.60;99.90;;;;;;5100006;28;20392;-74
2021/12/18 08:15:47;;;;;;;0.40;0.30;;;0.60;99.90;;;;;;5101044;28;20412;-74
2021/12/18 08:18:12;;;;;;;0.40;0.20;;;0.50;99.90;;;;;;5101012;28;20427;-74
2021/12/18 08:20:38;;;;;;;0.40;0.30;;;0.50;99.90;;;;;;5081321;28;20480;-74
2021/12/18 08:23:04;;;;;;;0.40;0.20;;;0.30;99.90;;;;;;5099890;28;20394;-74
2021/12/18 08:25:31;;;;;;;0.40;0.20;;;0.30;99.90;;;;;;5100344;28;20438;-74
2021/12/18 08:28:01;;;;;;;0.40;0.30;;;0.20;99.90;;;;;;5082356;28;20426;-73
2021/12/18 08:30:29;;;;;;;0.40;0.30;;;0.30;99.90;;;;;;5100788;28;20377;-73
2021/12/18 08:32:55;;;;;;;0.40;0.20;;;0.10;99.90;;;;;;5099147;28;20758;-74
2021/12/18 08:35:21;;;;;;;1.00;1.00;;;0.00;99.90;;;;;;5100897;28;20415;-73
2021/12/18 08:37:47;;;;;;;0.40;0.30;;;0.10;99.90;;;;;;5081160;28;20716;-73
2021/12/18 08:40:13;;;;;;;0.90;0.90;;;0.30;99.90;;;;;;5099958;28;20400;-73
2021/12/18 08:42:39;;;;;;;0.90;0.60;;;0.20;99.90;;;;;;5099552;28;20892;-73
2021/12/18 08:45:06;;;;;;;0.40;0.30;;;0.20;99.90;;;;;;5082353;28;20389;-73
2021/12/18 08:47:32;;;;;;;0.40;0.30;;;0.40;99.90;;;;;;5100276;28;20380;-73
2021/12/18 08:50:00;;;;;;;0.50;0.50;;;0.40;99.90;;;;;;5099875;28;20396;-73
2021/12/18 08:52:26;;;;;;;0.40;0.30;;;0.30;99.90;;;;;;5099625;28;20388;-73
2021/12/18 08:54:52;;;;;;;0.40;0.20;;;0.20;99.90;;;;;;5081606;28;20428;-74
2021/12/18 08:57:18;;;;;;;0.40;0.30;;;0.20;99.90;;;;;;5100781;28;20389;-73
2021/12/18 08:59:44;;;;;;;0.80;0.50;;;0.40;99.90;;;;;;5100766;28;20818;-73
2021/12/18 09:02:10;;;;;;;1.00;1.00;;;0.60;99.90;;;;;;5098230;28;20480;-73
2021/12/18 09:04:37;;;;;;;0.40;0.20;;;0.60;99.90;;;;;;5100270;28;20854;-73
2021/12/18 09:07:04;;;;;;;0.50;0.50;;;0.60;99.90;;;;;;5099619;28;20389;-73
2021/12/18 09:09:30;;;;;;;0.40;0.20;;;0.70;99.90;;;;;;5100374;28;20464;-73
2021/12/18 09:11:55;;;;;;;0.70;0.70;;;0.60;99.90;;;;;;5098744;28;20884;-73
2021/12/18 09:14:21;;;;;;;0.40;0.20;;;0.70;99.90;;;;;;5099335;28;20770;-74
2021/12/18 09:16:47;;;;;;;0.40;0.30;;;0.70;99.90;;;;;;5099754;28;20407;-73
2021/12/18 09:19:13;;;;;;;0.40;0.30;;;0.80;99.90;;;;;;5098690;28;20460;-73
2021/12/18 09:21:39;;;;;;;0.40;0.20;;;1.00;99.90;;;;;;5098214;28;20406;-73
2021/12/18 09:24:05;;;;;;;0.40;0.30;;;1.00;99.90;;;;;;5099183;28;20396;-73
2021/12/18 09:26:31;;;;;;;0.50;0.50;;;1.10;99.90;;;;;;5099662;28;20445;-74
2021/12/18 09:28:57;;;;;;;1.20;0.80;;;0.90;99.90;;;;;;5099471;28;20404;-73
2021/12/18 09:31:25;;;;;;;0.50;0.50;;;0.80;99.90;;;;;;5079470;28;20396;-73
2021/12/18 09:33:51;;;;;;;0.80;0.80;;;0.90;99.90;;;;;;5099358;28;21169;-73
2021/12/18 09:36:17;;;;;;;0.40;0.30;;;1.00;99.90;;;;;;5098276;28;20483;-73
2021/12/18 09:38:43;;;;;;;0.40;0.30;;;1.00;99.90;;;;;;5099406;28;20380;-72
2021/12/18 09:41:09;;;;;;;1.20;0.80;;;1.30;99.90;;;;;;5081125;28;20408;-72
2021/12/18 09:43:35;;;;;;;0.40;0.20;;;1.20;99.90;;;;;;5098006;28;20380;-72
2021/12/18 09:46:08;;;;;;;0.88;0.88;;;1.00;99.90;;;;;;5099391;28;20389;-73
2021/12/18 09:48:36;;;;;;;0.40;0.30;;;1.00;99.90;;;;;;5099308;28;20877;-72
2021/12/18 09:51:07;;;;;;;1.00;0.80;;;0.90;99.90;;;;;;5099278;28;20430;-72
2021/12/18 09:53:33;;;;;;;0.40;0.30;;;1.00;99.90;;;;;;5098457;28;20852;-72
2021/12/18 09:55:59;;;;;;;0.40;0.30;;;0.90;99.90;;;;;;5098851;28;20978;-72
2021/12/18 09:58:25;;;;;;;0.40;0.30;;;1.10;99.90;;;;;;5098852;28;20380;-72
2021/12/18 10:00:51;;;;;;;0.60;0.50;;;1.10;99.90;;;;;;5098658;28;20471;-72
2021/12/18 10:03:16;;;;;;;0.40;0.20;;;1.20;99.90;;;;;;5079137;28;20392;-73
2021/12/18 10:05:42;;;;;;;0.40;0.20;;;1.20;99.90;;;;;;5098381;28;20385;-72
2021/12/18 10:08:19;;;;;;;1.00;1.00;;;0.90;99.90;;;;;;5099272;28;21294;-73
2021/12/18 10:11:06;;;;;;;0.60;0.60;;;0.90;99.90;;;;;;5098429;28;20411;-73
2021/12/18 10:13:51;;;;;;;0.40;0.20;;;0.90;99.90;;;;;;5097016;28;20381;-73
2021/12/18 10:16:17;;;;;;;0.75;0.52;;;0.90;99.90;;;;;;5098957;28;20526;-72
2021/12/18 10:18:43;;;;;;;0.40;0.20;;;1.10;99.90;;;;;;5097913;28;20464;-72
2021/12/18 10:21:11;;;;;;;0.80;0.80;;;1.10;99.90;;;;;;5098426;28;20372;-73
2021/12/18 10:23:40;;;;;;;0.80;0.80;;;1.10;99.90;;;;;;5097994;28;20385;-72
2021/12/18 10:26:05;;;;;;;0.40;0.20;;;1.30;99.90;;;;;;5098266;28;20384;-72
2021/12/18 10:28:46;;;;;;;0.50;0.50;;;1.10;99.90;;;;;;5098854;28;20396;-72
2021/12/18 10:31:12;;;;;;;0.40;0.30;;;1.00;99.90;;;;;;5080025;28;20601;-73
2021/12/18 10:33:38;;;;;;;0.40;0.30;;;1.10;99.90;;;;;;5097967;28;20446;-73
2021/12/18 10:36:04;;;;;;;0.90;0.80;;;1.00;99.90;;;;;;5098740;28;20727;-73
2021/12/18 10:38:51;;;;;;;0.40;0.20;;;1.00;99.90;;;;;;5098016;28;20476;-73
2021/12/18 10:41:27;;;;;;;0.40;0.30;;;1.00;99.90;;;;;;5098155;28;20388;-73
2021/12/18 10:44:07;;;;;;;0.40;0.30;;;1.10;99.90;;;;;;5079999;28;20469;-73
2021/12/18 10:46:34;;;;;;;0.60;0.60;;;1.00;99.90;;;;;;5098970;28;20387;-72
2021/12/18 10:49:02;;;;;;;0.65;0.63;;;1.10;99.90;;;;;;5098588;28;20381;-72
2021/12/18 10:51:30;;;;;;;0.40;0.30;;;1.00;99.90;;;;;;5097388;28;20384;-72
2021/12/18 10:54:07;;;;;;;0.40;0.20;;;1.00;99.90;;;;;;5080063;28;20469;-72
2021/12/18 10:56:36;;;;;;;0.70;0.70;;;1.00;99.90;;;;;;5098027;28;20893;-73
2021/12/18 10:59:04;;;;;;;0.40;0.37;;;1.10;99.90;;;;;;5097442;28;20403;-73
2021/12/18 11:01:30;;;;;;;0.40;0.40;;;1.20;99.90;;;;;;5096891;28;20380;-72
2021/12/18 11:03:55;;;;;;;0.40;0.20;;;1.20;99.90;;;;;;5097742;28;20383;-72
2021/12/18 11:06:32;;;;;;;0.40;0.20;;;1.10;99.90;;;;;;5097829;28;20929;-72
2021/12/18 11:09:14;;;;;;;0.40;0.30;;;1.20;99.90;;;;;;5098665;28;20420;-73
2021/12/18 11:14:13;;;;;;;0.40;0.40;;;1.10;99.90;;;;;;5097648;28;20456;-72
2021/12/18 11:16:40;;;;;;;0.40;0.30;;;1.00;99.90;;;;;;5097776;28;20436;-72
2021/12/18 11:19:08;;;;;;;0.80;0.70;;;1.00;99.90;;;;;;5097282;28;20391;-72
2021/12/18 11:21:36;;;;;;;0.40;0.20;;;1.20;99.90;;;;;;5096473;28;20389;-73
2021/12/18 11:24:07;;;;;;;0.60;0.60;;;1.10;99.90;;;;;;5101966;28;20406;-73
2021/12/18 11:26:47;;;;;;;1.10;1.00;;;1.20;99.90;;;;;;5101385;28;20396;-73
2021/12/18 11:29:21;;;;;;;0.40;0.30;;;1.20;99.90;;;;;;5101804;28;20534;-73
2021/12/18 11:31:47;;;;;;;1.50;1.10;;;1.30;99.90;;;;;;5100798;28;20799;-72
2021/12/18 11:34:14;;;;;;;1.20;0.90;;;1.40;99.90;;;;;;5102010;28;20481;-73
2021/12/18 11:36:44;;;;;;;0.50;0.50;;;1.40;99.90;;;;;;5101582;28;20380;-73
2021/12/18 11:39:11;;;;;;;0.80;0.60;;;1.20;99.90;;;;;;5101265;28;20869;-72
2021/12/18 11:41:39;;;;;;;0.40;0.20;;;1.30;99.90;;;;;;5081466;28;20749;-72
2021/12/18 11:44:26;;;;;;;0.40;0.20;;;1.10;99.90;;;;;;5101848;28;20467;-72
2021/12/18 11:46:52;;;;;;;0.50;0.50;;;1.20;99.90;;;;;;5101243;28;20399;-73
2021/12/18 11:49:19;;;;;;;0.40;0.40;;;1.20;99.90;;;;;;5101774;28;20384;-73
2021/12/18 11:52:03;;;;;;;0.40;0.20;;;1.40;99.90;;;;;;5100107;28;20407;-73
2021/12/18 11:54:51;;;;;;;0.40;0.20;;;1.10;99.90;;;;;;5082433;28;20547;-73
2021/12/18 11:57:40;;;;;;;0.80;0.60;;;1.20;99.90;;;;;;5101327;28;20393;-72
2021/12/18 12:00:35;;;;;;;1.10;1.10;;;1.30;99.90;;;;;;5101037;28;21011;-72
2021/12/18 12:03:06;;;;;;;0.60;0.50;;;1.40;99.90;;;;;;5089753;28;20396;-72
2021/12/18 12:05:34;;;;;;;1.00;0.60;;;1.40;99.90;;;;;;5101289;28;20384;-73
2021/12/18 12:08:31;;;;;;;0.40;0.30;;;1.30;99.90;;;;;;5100347;28;20886;-73
2021/12/18 12:11:17;;;;;;;1.10;1.00;;;1.20;99.90;;;;;;5100617;28;20425;-73
2021/12/18 12:14:04;;;;;;;0.40;0.20;;;1.40;99.90;;;;;;5100303;28;20480;-73
2021/12/18 12:16:45;;;;;;;0.40;0.30;;;1.20;99.90;;;;;;5100784;28;20415;-73
2021/12/18 12:19:22;;;;;;;1.00;0.60;;;1.40;99.90;;;;;;5100261;28;20384;-73
2021/12/18 12:21:50;;;;;;;1.10;1.00;;;1.50;99.90;;;;;;5098987;28;21701;-72
2021/12/18 12:24:19;;;;;;;0.40;0.20;;;1.50;99.90;;;;;;5101802;28;20448;-73
2021/12/18 12:26:46;;;;;;;0.55;0.55;;;1.70;99.90;;;;;;5100622;28;20391;-73
2021/12/18 12:29:15;;;;;;;0.40;0.20;;;1.60;99.90;;;;;;5100499;28;20527;-72
2021/12/18 12:32:00;;;;;;;0.40;0.20;;;1.60;99.90;;;;;;5099816;28;20385;-73
2021/12/18 12:34:33;;;;;;;0.40;0.30;;;1.60;99.90;;;;;;5099819;28;20408;-72
2021/12/18 12:37:21;;;;;;;0.40;0.30;;;1.50;99.90;;;;;;5099511;28;21305;-74
2021/12/18 12:40:04;;;;;;;0.70;0.50;;;1.60;99.90;;;;;;5099930;28;20380;-72
2021/12/18 12:42:31;;;;;;;0.40;0.30;;;1.60;99.90;;;;;;5099093;28;20884;-72
2021/12/18 12:45:04;;;;;;;0.40;0.20;;;1.50;99.90;;;;;;5100299;28;20428;-73
2021/12/18 12:47:32;;;;;;;0.40;0.20;;;1.50;99.90;;;;;;5100698;28;20464;-72
2021/12/18 12:49:59;;;;;;;1.42;1.27;;;1.70;99.90;;;;;;5082061;28;20507;-73
2021/12/18 12:52:27;;;;;;;0.40;0.30;;;1.70;99.90;;;;;;5098723;28;20416;-73
2021/12/18 12:55:04;;;;;;;1.40;1.00;;;1.70;99.90;;;;;;5099571;28;20420;-72
2021/12/18 12:57:36;;;;;;;0.60;0.60;;;1.50;99.90;;;;;;5099713;28;20403;-73
2021/12/18 13:00:08;;;;;;;0.40;0.22;;;1.40;99.90;;;;;;5099519;28;20410;-72
2021/12/18 13:02:49;;;;;;;0.60;0.60;;;1.60;99.90;;;;;;5098365;28;20504;-72
2021/12/18 13:05:15;;;;;;;0.40;0.20;;;1.50;99.90;;;;;;5099731;28;20388;-72
2021/12/18 13:07:56;;;;;;;0.40;0.20;;;1.60;99.90;;;;;;5100334;28;21319;-73
2021/12/18 13:10:25;;;;;;;0.50;0.50;;;1.60;99.90;;;;;;5099468;28;20376;-72
2021/12/18 13:12:55;;;;;;;1.40;1.30;;;1.70;99.90;;;;;;5099288;28;20381;-72
2021/12/18 13:15:21;;;;;;;0.40;0.30;;;1.80;99.90;;;;;;5099008;28;20426;-73
2021/12/18 13:18:03;;;;;;;0.40;0.38;;;1.80;99.90;;;;;;5099964;28;20392;-75
2021/12/18 13:20:29;;;;;;;0.40;0.30;;;1.60;99.90;;;;;;5080378;28;20746;-72
2021/12/18 13:22:54;;;;;;;0.90;0.90;;;1.60;99.90;;;;;;5098417;28;20383;-73
2021/12/18 13:25:21;;;;;;;0.80;0.80;;;1.80;99.90;;;;;;5099596;28;20401;-73
2021/12/18 13:28:05;;;;;;;0.60;0.60;;;1.90;99.90;;;;;;5080798;28;20747;-73
2021/12/18 13:30:34;;;;;;;0.50;0.40;;;1.70;99.90;;;;;;5099454;28;20384;-72
2021/12/18 13:33:04;;;;;;;1.90;0.70;;;1.70;99.90;;;;;;5098625;28;20381;-73
2021/12/18 13:35:32;;;;;;;0.40;0.30;;;1.60;99.90;;;;;;5100132;28;20407;-72
2021/12/18 13:38:03;;;;;;;0.40;0.40;;;1.90;99.90;;;;;;5099139;28;21381;-73
2021/12/18 13:40:32;;;;;;;0.80;0.70;;;2.10;99.90;;;;;;5099282;28;20431;-73
2021/12/18 13:43:08;;;;;;;0.50;0.43;;;2.10;99.90;;;;;;5098210;28;20746;-73
2021/12/18 13:45:58;;;;;;;0.40;0.30;;;1.90;99.90;;;;;;5079697;28;20951;-73
2021/12/18 13:48:29;;;;;;;0.40;0.40;;;1.90;99.90;;;;;;5099590;28;20380;-73
2021/12/18 13:51:05;;;;;;;0.50;0.50;;;1.90;99.90;;;;;;5098318;28;20392;-73
2021/12/18 13:53:31;;;;;;;0.60;0.60;;;2.00;99.90;;;;;;5097884;28;20728;-73